SPHO/AYP METAR and TAF weather

Enter ICAO airport designator
Station Type Date Time Source
SPHO METAR 2019/12/06 23:00 UTC NOAA

SPHO 062300Z 22008KT 170V280 9000 VCSH BKN080 18/07 Q1024 RMK PP000


Station Type Date Time Source
SPHO Decoded METAR 2019/12/06 23:00 UTC NOAA

Ayacucho, Peru (SPHO) 13-08S 074-13W 2749M
Dec 06, 2019 - 06:00 PM EST / 2019.12.06 2300 UTC
Wind: from the SW (220 degrees) at 9 MPH (8 KT) (direction variable):0
Visibility: 5 mile(s):0
Sky conditions: mostly cloudy
Weather: showers in the vicinity
Temperature: 64 F (18 C)
Dew Point: 44 F (7 C)
Relative Humidity: 48%
Pressure (altimeter): 30.24 in. Hg (1024 hPa)
ob: SPHO 062300Z 22008KT 170V280 9000 VCSH BKN080 18/07 Q1024 RMK PP000
cycle: 23

Station Type Date Time Source
SPHO TAF 2019/12/06 18:33 UTC NOAA

SPHO 061700Z 0618/0718 VRB04KT 9999 FEW020 SCT100 TX25/0619Z TN12/0711Z
TEMPO 0619/0623 FEW040TCU BKN090
BECMG 0623/0701 FEW050

Example: see airport list